Time;durP1;ratioP1;P1;durP2;ratioP2;P2;SDS_P1;SDS_P2;PMS_P1;PMS_P2;Temp;Humidity;BMP_temperature;BMP_pressure;BME280_temperature;BME280_humidity;BME280_pressure;Samples;Min_cycle;Max_cycle;Signal;HPM_P1;HPM_P2
2022/02/19 00:00:24;;;;;;;3.40;3.10;;;;;;;19.65;46.82;100365.19;4996305;28;20068;-44
2022/02/19 00:02:50;;;;;;;4.47;3.35;;;;;;;19.65;46.70;100357.25;5005470;28;20497;-44
2022/02/19 00:05:17;;;;;;;5.68;3.42;;;;;;;19.63;46.82;100362.75;4987923;28;20159;-41
2022/02/19 00:07:42;;;;;;;5.45;3.40;;;;;;;19.63;47.14;100367.22;5005062;28;20402;-45
2022/02/19 00:10:08;;;;;;;4.30;3.40;;;;;;;19.63;47.07;100375.16;5005508;28;20088;-42
2022/02/19 00:12:34;;;;;;;4.95;3.38;;;;;;;19.61;47.08;100369.25;5004721;28;20033;-48
2022/02/19 00:14:59;;;;;;;5.63;3.47;;;;;;;19.61;46.96;100364.78;5005447;28;20085;-43
2022/02/19 00:17:25;;;;;;;5.10;3.67;;;;;;;19.60;47.07;100359.69;5005357;28;20046;-43
2022/02/19 00:19:53;;;;;;;4.57;3.60;;;;;;;19.60;47.02;100351.78;5005114;28;20026;-45
2022/02/19 00:22:18;;;;;;;4.97;3.42;;;;;;;19.60;47.01;100346.50;5003941;28;20082;-44
2022/02/19 00:24:44;;;;;;;4.55;3.22;;;;;;;19.58;47.05;100354.63;5005836;28;20572;-45
2022/02/19 00:27:09;;;;;;;6.38;3.22;;;;;;;19.57;46.91;100349.53;5006074;28;20045;-44
2022/02/19 00:29:35;;;;;;;4.32;2.83;;;;;;;19.57;46.94;100353.00;4987275;28;20084;-41
2022/02/19 00:32:00;;;;;;;3.17;2.70;;;;;;;19.57;46.75;100362.75;5005480;28;20060;-46
2022/02/19 00:34:26;;;;;;;4.35;2.80;;;;;;;19.54;46.73;100359.50;5006052;28;20092;-44
2022/02/19 00:36:51;;;;;;;4.53;2.97;;;;;;;19.54;46.97;100363.97;5003982;28;20037;-43
2022/02/19 00:39:17;;;;;;;3.63;2.75;;;;;;;19.54;46.95;100369.25;5006129;28;20033;-42
2022/02/19 00:41:42;;;;;;;6.00;2.78;;;;;;;19.53;46.92;100365.00;5004960;28;20061;-45
2022/02/19 00:44:08;;;;;;;3.53;2.50;;;;;;;19.53;46.76;100372.91;5004321;28;20501;-46
2022/02/19 00:46:34;;;;;;;4.18;3.03;;;;;;;19.52;46.79;100372.09;5004862;28;20048;-44
2022/02/19 00:49:02;;;;;;;3.50;2.38;;;;;;;19.51;46.77;100375.78;5004067;28;20088;-44
2022/02/19 00:51:30;;;;;;;4.45;2.67;;;;;;;19.51;46.68;100369.66;5005267;28;20057;-46
2022/02/19 00:53:56;;;;;;;3.33;2.13;;;;;;;19.50;46.70;100382.03;5004484;28;20108;-45
2022/02/19 00:56:21;;;;;;;4.78;2.85;;;;;;;19.49;46.71;100372.47;5005180;28;20049;-42
2022/02/19 00:58:47;;;;;;;3.25;2.20;;;;;;;19.49;46.81;100367.19;5003823;28;20038;-44
2022/02/19 01:01:13;;;;;;;3.75;2.50;;;;;;;19.48;46.78;100365.56;5005188;28;20061;-42
2022/02/19 01:03:38;;;;;;;3.80;2.38;;;;;;;19.49;46.69;100375.13;5005467;28;20394;-44
2022/02/19 01:06:04;;;;;;;4.07;2.40;;;;;;;19.49;46.92;100372.47;5005011;28;20324;-45
2022/02/19 01:08:29;;;;;;;3.35;2.55;;;;;;;19.49;46.71;100372.47;5004161;28;20044;-43
2022/02/19 01:10:55;;;;;;;3.53;2.63;;;;;;;19.50;46.74;100368.81;5007565;28;20450;-48
2022/02/19 01:13:20;;;;;;;3.63;2.35;;;;;;;19.49;46.64;100361.91;4988490;28;20038;-45
2022/02/19 01:15:46;;;;;;;3.63;2.63;;;;;;;19.49;46.72;100367.19;5007494;28;20058;-46
2022/02/19 01:18:12;;;;;;;3.25;2.70;;;;;;;19.49;46.87;100371.66;5009388;28;20481;-43
2022/02/19 01:20:41;;;;;;;3.75;2.70;;;;;;;19.48;46.70;100367.41;5008106;28;20107;-47
2022/02/19 01:23:07;;;;;;;3.33;2.13;;;;;;;19.48;46.90;100370.03;5007305;28;20091;-45
2022/02/19 01:25:33;;;;;;;2.83;2.53;;;;;;;19.47;46.66;100369.22;5008592;28;20026;-43
2022/02/19 01:27:58;;;;;;;2.80;2.15;;;;;;;19.47;46.79;100363.94;5009118;28;20096;-45
2022/02/19 01:30:24;;;;;;;3.38;2.22;;;;;;;19.47;46.74;100371.88;5006968;28;20040;-48
2022/02/19 01:32:49;;;;;;;3.47;2.00;;;;;;;19.45;46.66;100368.63;5007346;28;20026;-43
2022/02/19 01:35:14;;;;;;;3.58;2.50;;;;;;;19.45;46.91;100360.69;5007285;28;20085;-43
2022/02/19 01:37:40;;;;;;;4.60;2.53;;;;;;;19.46;46.81;100372.06;5007975;28;20281;-48
2022/02/19 01:40:06;;;;;;;2.67;2.08;;;;;;;19.44;46.89;100359.06;5006337;28;20385;-42
2022/02/19 01:42:32;;;;;;;3.67;2.03;;;;;;;19.44;46.88;100366.19;4990938;28;20072;-43
2022/02/19 01:44:57;;;;;;;2.95;2.15;;;;;;;19.43;46.77;100364.56;5005810;28;20108;-43
2022/02/19 01:47:23;;;;;;;3.88;2.42;;;;;;;19.42;46.83;100376.16;5007427;28;20408;-43
2022/02/19 01:49:48;;;;;;;3.03;1.95;;;;;;;19.40;46.79;100368.41;5008026;28;20041;-46
2022/02/19 01:52:16;;;;;;;3.75;2.90;;;;;;;19.39;46.80;100366.78;5007228;28;20029;-44
2022/02/19 01:54:43;;;;;;;4.72;2.85;;;;;;;19.39;46.82;100372.06;5008264;28;20465;-43
2022/02/19 01:57:09;;;;;;;4.35;2.42;;;;;;;19.39;46.67;100372.06;5008428;28;20033;-43
2022/02/19 01:59:36;;;;;;;4.05;2.15;;;;;;;19.38;46.68;100365.16;5007457;28;20022;-44
2022/02/19 02:02:02;;;;;;;2.42;1.98;;;;;;;19.38;46.65;100364.34;5007916;28;20033;-44
2022/02/19 02:04:28;;;;;;;3.63;1.85;;;;;;;19.37;46.90;100363.56;4988766;28;20581;-45
2022/02/19 02:06:54;;;;;;;3.08;2.25;;;;;;;19.37;46.89;100373.31;5003816;28;20419;-44
2022/02/19 02:09:20;;;;;;;3.22;1.70;;;;;;;19.37;46.71;100371.50;5007932;28;20103;-41
2022/02/19 02:11:47;;;;;;;3.45;2.08;;;;;;;19.37;46.72;100366.22;5270256;23;20073;-44
2022/02/19 02:14:13;;;;;;;2.72;2.10;;;;;;;19.35;46.58;100370.06;5006962;28;20026;-44
2022/02/19 02:16:43;;;;;;;3.83;2.08;;;;;;;19.35;46.82;100365.59;5008739;28;20029;-45
2022/02/19 02:19:09;;;;;;;4.85;1.80;;;;;;;19.33;46.74;100362.34;5008026;28;20528;-42
2022/02/19 02:21:36;;;;;;;3.15;1.90;;;;;;;19.34;46.71;100355.25;5006920;28;20041;-45
2022/02/19 02:24:02;;;;;;;3.25;2.15;;;;;;;19.33;46.76;100356.25;5006925;28;20513;-41
2022/02/19 02:26:27;;;;;;;3.03;1.65;;;;;;;19.31;46.68;100348.53;5005449;28;20052;-44
2022/02/19 02:28:53;;;;;;;5.95;2.50;;;;;;;19.33;46.77;100353.63;5008081;28;20116;-44
2022/02/19 02:31:19;;;;;;;2.58;2.33;;;;;;;19.31;46.75;100347.72;5005362;28;20634;-44
2022/02/19 02:33:48;;;;;;;3.13;2.08;;;;;;;19.30;46.76;100335.53;4989102;28;20022;-42
2022/02/19 02:36:14;;;;;;;2.80;2.17;;;;;;;19.30;46.78;100340.81;5008136;28;20500;-44
2022/02/19 02:38:40;;;;;;;3.17;2.83;;;;;;;19.29;46.71;100340.00;5006490;28;20053;-43
2022/02/19 02:41:05;;;;;;;2.67;2.20;;;;;;;19.30;46.74;100346.09;5007135;28;20396;-45
2022/02/19 02:43:31;;;;;;;4.90;2.78;;;;;;;19.28;46.72;100343.66;5006121;28;20021;-43
2022/02/19 02:45:57;;;;;;;3.33;2.47;;;;;;;19.29;46.84;100339.19;5005330;28;20041;-44
2022/02/19 02:48:22;;;;;;;2.78;2.25;;;;;;;19.28;46.94;100346.31;5006071;28;20477;-44
2022/02/19 02:50:48;;;;;;;4.45;2.63;;;;;;;19.29;46.60;100347.13;5006245;28;20070;-43
2022/02/19 02:53:13;;;;;;;4.45;2.03;;;;;;;19.28;46.90;100348.94;5006299;28;20049;-44
2022/02/19 02:55:39;;;;;;;2.42;1.85;;;;;;;19.26;46.81;100358.91;5006973;28;20036;-41
2022/02/19 02:58:04;;;;;;;2.50;1.92;;;;;;;19.25;46.82;100354.63;5008364;28;20121;-44
2022/02/19 03:00:30;;;;;;;3.05;2.40;;;;;;;19.24;46.82;100355.66;5006228;28;20026;-46
2022/02/19 03:02:56;;;;;;;3.67;2.25;;;;;;;19.23;46.86;100361.94;5007994;28;20026;-46
2022/02/19 03:05:22;;;;;;;3.00;2.05;;;;;;;19.23;46.65;100356.66;5007351;28;20041;-41
2022/02/19 03:07:47;;;;;;;3.63;2.00;;;;;;;19.25;46.83;100367.84;5006043;28;20034;-45
2022/02/19 03:10:16;;;;;;;4.30;3.00;;;;;;;19.26;46.70;100360.72;5005994;28;20053;-44
2022/02/19 03:12:46;;;;;;;4.63;2.05;;;;;;;19.23;46.76;100362.75;4989610;28;20120;-47
2022/02/19 03:15:18;;;;;;;3.78;2.42;;;;;;;19.25;46.79;100362.56;5005039;28;20042;-45
2022/02/19 03:17:45;;;;;;;2.70;2.20;;;;;;;19.25;46.79;100364.38;4987965;28;20490;-45
2022/02/19 03:20:14;;;;;;;3.13;2.75;;;;;;;19.23;46.85;100373.31;4997074;28;20539;-44
2022/02/19 03:22:39;;;;;;;3.33;2.40;;;;;;;19.23;46.86;100368.03;4994332;28;20026;-46
2022/02/19 03:25:05;;;;;;;3.15;2.28;;;;;;;19.23;46.79;100375.16;5007543;28;20022;-44
2022/02/19 03:27:31;;;;;;;3.75;2.67;;;;;;;19.22;46.75;100370.88;5004937;28;20030;-44
2022/02/19 03:29:56;;;;;;;2.95;2.17;;;;;;;19.22;46.90;100371.69;5005522;28;20029;-42
2022/02/19 03:32:22;;;;;;;3.03;1.83;;;;;;;19.22;46.71;100370.88;5006266;28;20108;-44
2022/02/19 03:34:47;;;;;;;4.55;2.92;;;;;;;19.21;46.79;100375.34;5006828;28;20040;-44
2022/02/19 03:37:13;;;;;;;3.60;2.55;;;;;;;19.22;46.93;100381.44;5005466;28;20045;-44
2022/02/19 03:39:38;;;;;;;3.63;2.38;;;;;;;19.21;46.74;100382.47;5006548;28;20038;-44
2022/02/19 03:42:04;;;;;;;4.10;2.80;;;;;;;19.21;46.79;100385.09;5005752;28;20036;-44
2022/02/19 03:44:30;;;;;;;3.55;2.97;;;;;;;19.20;46.88;100391.41;5006660;28;20040;-45
2022/02/19 03:46:55;;;;;;;3.10;2.75;;;;;;;19.19;46.94;100397.69;5006557;28;20143;-42
2022/02/19 03:49:21;;;;;;;4.20;3.33;;;;;;;19.19;46.80;100392.41;5006926;28;20165;-49
2022/02/19 03:51:46;;;;;;;3.45;2.80;;;;;;;19.18;46.83;100388.16;5005551;28;20117;-44
2022/02/19 03:54:12;;;;;;;4.63;3.10;;;;;;;19.19;46.84;100390.59;5006369;28;20421;-44
2022/02/19 03:56:38;;;;;;;3.88;3.45;;;;;;;19.17;46.92;100378.59;5007134;28;20042;-43
2022/02/19 03:59:04;;;;;;;3.25;2.78;;;;;;;19.17;46.84;100374.13;5006758;28;20107;-47
2022/02/19 04:01:30;;;;;;;3.58;2.58;;;;;;;19.18;46.79;100378.41;5005101;28;20033;-45
2022/02/19 04:03:55;;;;;;;3.78;2.58;;;;;;;19.17;46.84;100375.97;5006061;28;20030;-44
2022/02/19 04:06:21;;;;;;;3.15;1.90;;;;;;;19.16;46.87;100377.78;5005779;28;20038;-44
2022/02/19 04:08:46;;;;;;;4.78;2.50;;;;;;;19.15;46.86;100384.09;5006120;28;20037;-42
2022/02/19 04:11:12;;;;;;;3.00;2.00;;;;;;;19.14;46.83;100389.56;5006069;28;20796;-44
2022/02/19 04:13:39;;;;;;;3.45;2.28;;;;;;;19.13;46.91;100393.22;5006210;28;20046;-43
2022/02/19 04:16:04;;;;;;;3.47;2.58;;;;;;;19.13;46.86;100398.50;5003336;28;20033;-42
2022/02/19 04:18:30;;;;;;;4.70;2.70;;;;;;;19.11;46.91;100397.88;5007039;28;20030;-47
2022/02/19 04:20:55;;;;;;;4.30;2.67;;;;;;;19.11;46.95;100406.63;5005010;28;20033;-44
2022/02/19 04:23:21;;;;;;;4.90;2.35;;;;;;;19.10;46.99;100401.53;5001042;28;20129;-45
2022/02/19 04:25:46;;;;;;;3.33;2.10;;;;;;;19.10;46.97;100393.63;5004492;28;20026;-43
2022/02/19 04:28:12;;;;;;;3.40;2.10;;;;;;;19.09;46.94;100397.28;5005824;28;20030;-47
2022/02/19 04:30:37;;;;;;;2.20;1.75;;;;;;;19.08;47.03;100400.94;5006027;28;20076;-47
2022/02/19 04:33:04;;;;;;;3.50;2.20;;;;;;;19.09;46.86;100399.91;5004938;28;20370;-42
2022/02/19 04:35:31;;;;;;;3.05;2.13;;;;;;;19.08;47.15;100391.19;5006470;28;20061;-45
2022/02/19 04:37:57;;;;;;;3.92;2.30;;;;;;;19.08;46.99;100400.94;5003690;28;20037;-45
2022/02/19 04:40:24;;;;;;;2.47;1.65;;;;;;;19.07;47.00;100392.19;5006459;28;20474;-44
2022/02/19 04:42:49;;;;;;;2.97;2.22;;;;;;;19.07;47.00;100389.56;5004166;28;20034;-42
2022/02/19 04:45:15;;;;;;;1.63;1.50;;;;;;;19.06;46.94;100393.22;5008092;28;20053;-43
2022/02/19 04:47:41;;;;;;;3.08;1.77;;;;;;;19.06;46.96;100387.13;5009061;28;20037;-45
2022/02/19 04:50:08;;;;;;;4.25;2.50;;;;;;;19.06;46.81;100384.47;5009727;28;20109;-44
2022/02/19 04:52:34;;;;;;;3.83;2.40;;;;;;;19.06;47.07;100389.75;5008580;28;20034;-46
2022/02/19 04:55:00;;;;;;;4.93;3.08;;;;;;;19.05;47.01;100386.31;5010208;28;20040;-42
2022/02/19 04:57:26;;;;;;;3.30;1.90;;;;;;;19.05;47.16;100388.94;5009759;28;20025;-43
2022/02/19 04:59:52;;;;;;;3.70;2.20;;;;;;;19.05;47.07;100386.31;5009225;28;20040;-45
2022/02/19 05:02:17;;;;;;;2.53;2.15;;;;;;;19.04;47.08;100383.88;5009298;28;20022;-45
2022/02/19 05:04:43;;;;;;;3.58;2.53;;;;;;;19.05;47.05;100386.31;5010263;28;20040;-45
2022/02/19 05:07:09;;;;;;;4.72;2.75;;;;;;;19.04;47.18;100381.22;5008698;28;20033;-42
2022/02/19 05:09:35;;;;;;;3.47;2.38;;;;;;;19.04;46.97;100389.16;4992124;28;20198;-42
2022/02/19 05:12:00;;;;;;;3.38;2.20;;;;;;;19.04;47.11;100378.59;5008352;28;20060;-47
2022/02/19 05:14:26;;;;;;;3.17;2.50;;;;;;;19.03;47.09;100374.31;5010244;28;20034;-44
2022/02/19 05:16:51;;;;;;;3.97;2.40;;;;;;;19.03;47.11;100383.06;5007314;28;20072;-41
2022/02/19 05:19:17;;;;;;;3.65;2.30;;;;;;;19.03;47.14;100369.03;5010035;28;20065;-42
2022/02/19 05:21:42;;;;;;;4.15;2.45;;;;;;;19.03;47.05;100374.31;5008181;28;20370;-42
2022/02/19 05:24:08;;;;;;;2.35;2.15;;;;;;;19.02;47.10;100376.16;5008771;28;20485;-41
2022/02/19 05:26:33;;;;;;;2.40;2.08;;;;;;;19.03;47.11;100376.97;5008805;28;20038;-41
2022/02/19 05:28:59;;;;;;;2.67;1.95;;;;;;;19.03;47.02;100382.25;5009263;28;20044;-44
2022/02/19 05:31:24;;;;;;;3.53;2.85;;;;;;;19.02;47.10;100381.44;5007868;28;20042;-43
2022/02/19 05:33:49;;;;;;;3.85;2.50;;;;;;;19.01;46.99;100384.25;5007552;28;20030;-45
2022/02/19 05:36:15;;;;;;;3.58;2.08;;;;;;;19.02;47.02;100386.72;5008785;28;20128;-46
2022/02/19 05:38:41;;;;;;;3.33;2.28;;;;;;;19.01;47.15;100392.19;5007822;28;20394;-45
2022/02/19 05:41:06;;;;;;;3.15;2.05;;;;;;;19.01;47.03;100394.81;5008311;28;20084;-43
2022/02/19 05:43:32;;;;;;;5.80;2.25;;;;;;;19.02;47.10;100401.72;5008917;28;20037;-46
2022/02/19 05:45:57;;;;;;;3.20;2.42;;;;;;;19.01;47.12;100397.47;4990040;28;20373;-44
2022/02/19 05:48:23;;;;;;;2.25;1.98;;;;;;;19.01;47.23;100400.91;5006546;28;20116;-41
2022/02/19 05:50:50;;;;;;;2.95;2.20;;;;;;;19.00;47.24;100401.13;5008032;28;20625;-44
2022/02/19 05:53:16;;;;;;;3.38;2.05;;;;;;;18.99;47.26;100402.94;5006908;28;20116;-42
2022/02/19 05:55:42;;;;;;;3.53;1.52;;;;;;;18.99;47.33;100407.41;5008385;28;20121;-43
2022/02/19 05:58:08;;;;;;;3.22;1.98;;;;;;;18.98;47.25;100411.06;5008010;28;20477;-43
2022/02/19 06:00:33;;;;;;;3.33;1.90;;;;;;;18.96;47.33;100411.25;5007523;28;20377;-41
2022/02/19 06:02:59;;;;;;;3.20;1.67;;;;;;;18.96;47.25;100410.44;5007248;28;20033;-44
2022/02/19 06:05:25;;;;;;;2.47;2.25;;;;;;;18.96;47.31;100413.91;5009067;28;20018;-42
2022/02/19 06:07:50;;;;;;;2.38;2.08;;;;;;;18.96;47.32;100413.09;5007207;28;20113;-43
2022/02/19 06:10:16;;;;;;;2.03;1.80;;;;;;;18.96;47.31;100419.19;5008032;28;20445;-46
2022/02/19 06:12:42;;;;;;;2.85;1.88;;;;;;;18.96;47.19;100429.75;5008681;28;20289;-42
2022/02/19 06:15:08;;;;;;;2.92;2.38;;;;;;;18.96;47.24;100434.22;5008922;28;20465;-42
2022/02/19 06:17:33;;;;;;;2.70;1.85;;;;;;;18.95;47.41;100436.03;5006194;28;20037;-44
2022/02/19 06:19:59;;;;;;;2.40;1.90;;;;;;;18.96;47.33;100439.50;5008841;28;20080;-41
2022/02/19 06:22:24;;;;;;;2.15;1.58;;;;;;;18.94;47.57;100442.31;5005131;28;20029;-44
2022/02/19 06:24:50;;;;;;;2.42;1.63;;;;;;;18.95;47.43;100441.31;4990780;28;20030;-43
2022/02/19 06:27:16;;;;;;;2.05;1.65;;;;;;;18.95;47.54;100440.50;5006476;28;20030;-44
2022/02/19 06:29:41;;;;;;;2.42;2.10;;;;;;;18.93;47.37;100434.59;5008447;28;20396;-46
2022/02/19 06:32:07;;;;;;;2.47;2.28;;;;;;;18.93;47.44;100448.63;5007881;28;20037;-45
2022/02/19 06:34:32;;;;;;;2.85;2.08;;;;;;;18.93;47.37;100456.53;5007405;28;20029;-44
2022/02/19 06:36:58;;;;;;;4.03;1.67;;;;;;;18.92;47.44;100451.47;5006352;28;20049;-44
2022/02/19 06:39:23;;;;;;;1.60;1.30;;;;;;;18.90;47.47;100449.84;5006241;28;20037;-46
2022/02/19 06:41:49;;;;;;;3.05;1.23;;;;;;;18.90;47.37;100456.97;5007646;28;20100;-41
2022/02/19 06:44:14;;;;;;;1.50;1.02;;;;;;;18.88;47.40;100465.09;5008300;28;20474;-43
2022/02/19 06:46:40;;;;;;;1.83;1.15;;;;;;;18.88;47.48;100465.09;5006843;28;20034;-43
2022/02/19 06:49:05;;;;;;;2.38;1.17;;;;;;;18.87;47.42;100474.00;5007170;28;20036;-42
2022/02/19 06:51:31;;;;;;;1.50;1.33;;;;;;;18.86;47.38;100468.94;5006526;28;20041;-47
2022/02/19 06:53:56;;;;;;;1.98;1.30;;;;;;;18.85;47.43;100469.94;5006447;28;20281;-40
2022/02/19 06:56:26;;;;;;;1.67;1.40;;;;;;;18.85;47.53;100464.66;5007441;28;20113;-43
2022/02/19 06:58:54;;;;;;;3.08;1.17;;;;;;;18.85;47.47;100469.94;5007772;28;20250;-46
2022/02/19 07:01:20;;;;;;;1.95;1.17;;;;;;;18.84;47.48;100478.88;5005770;28;20056;-41
2022/02/19 07:03:45;;;;;;;1.60;0.90;;;;;;;18.83;47.57;100472.78;4989113;28;20030;-43
2022/02/19 07:06:11;;;;;;;1.42;1.08;;;;;;;18.83;47.48;100471.97;5006674;28;20029;-43
2022/02/19 07:08:36;;;;;;;1.42;1.20;;;;;;;18.82;47.35;100479.06;5005230;28;20026;-42
2022/02/19 07:11:02;;;;;;;2.70;1.05;;;;;;;18.83;47.47;100478.06;5006376;28;20045;-44
2022/02/19 07:13:27;;;;;;;2.72;1.02;;;;;;;18.86;47.37;100477.66;5007702;28;20053;-44
2022/02/19 07:15:53;;;;;;;1.75;1.20;;;;;;;18.91;47.20;100487.59;5005854;28;20044;-44
2022/02/19 07:18:18;;;;;;;3.10;1.38;;;;;;;18.95;47.12;100480.09;5006553;28;20057;-43
2022/02/19 07:20:44;;;;;;;1.70;1.08;;;;;;;18.99;47.14;100491.91;5007539;28;20021;-39
2022/02/19 07:23:09;;;;;;;2.35;1.40;;;;;;;19.03;47.06;100493.13;5005810;28;20044;-40
2022/02/19 07:25:35;;;;;;;1.67;1.10;;;;;;;19.10;47.00;100491.31;5006277;28;20358;-41
2022/02/19 07:28:01;;;;;;;2.42;1.20;;;;;;;19.15;46.84;100492.34;5006014;28;20559;-40
2022/02/19 07:30:27;;;;;;;1.88;1.15;;;;;;;19.22;46.69;100497.66;5007735;28;20029;-43
2022/02/19 07:32:53;;;;;;;2.13;1.02;;;;;;;19.29;46.74;100498.50;5006780;28;20037;-40
2022/02/19 07:35:20;;;;;;;1.38;1.08;;;;;;;19.37;46.37;100495.66;5006504;28;20034;-43
2022/02/19 07:37:45;;;;;;;1.90;1.20;;;;;;;19.44;46.35;100500.94;5006158;28;20041;-41
2022/02/19 07:40:11;;;;;;;2.85;0.88;;;;;;;19.50;46.43;100508.88;5005348;28;20018;-43
2022/02/19 07:42:36;;;;;;;1.65;0.80;;;;;;;19.55;46.40;100508.31;5007303;28;20053;-41
2022/02/19 07:45:03;;;;;;;2.05;0.88;;;;;;;19.61;46.18;100518.06;5006513;28;20111;-45
2022/02/19 07:47:30;;;;;;;1.30;1.00;;;;;;;19.67;46.10;100519.09;5006810;28;20033;-41
2022/02/19 07:58:18;;;;;;;1.00;0.75;;;;;;;19.96;45.85;100529.25;5002804;28;20069;-42
2022/02/19 08:00:58;;;;;;;1.75;0.80;;;;;;;20.04;45.53;100534.34;5003077;28;20030;-43
2022/02/19 08:03:27;;;;;;;1.42;0.93;;;;;;;20.10;45.60;100532.69;5007257;28;20026;-43
2022/02/19 08:05:54;;;;;;;1.30;0.90;;;;;;;20.16;45.42;100530.06;5007102;28;20550;-43
2022/02/19 08:08:21;;;;;;;1.40;0.75;;;;;;;20.23;45.44;100539.81;5007067;28;20036;-42
2022/02/19 08:10:47;;;;;;;3.17;1.00;;;;;;;20.29;45.42;100537.16;5006689;28;20037;-43
2022/02/19 08:13:15;;;;;;;1.63;0.70;;;;;;;20.37;45.40;100544.88;5006491;28;20072;-42
2022/02/19 08:15:42;;;;;;;1.25;1.00;;;;;;;20.45;45.31;100534.09;5006858;28;20079;-46
2022/02/19 08:18:10;;;;;;;1.10;0.88;;;;;;;20.52;45.14;100532.25;5004309;28;20429;-41
2022/02/19 08:20:38;;;;;;;1.33;0.60;;;;;;;20.58;45.25;100543.84;4992586;28;20100;-47
2022/02/19 08:23:05;;;;;;;1.00;0.57;;;;;;;20.65;45.02;100544.63;5000138;28;20030;-45
2022/02/19 08:25:31;;;;;;;1.88;0.70;;;;;;;20.70;44.84;100541.38;5003823;28;20125;-43
2022/02/19 08:27:57;;;;;;;1.90;0.60;;;;;;;20.76;44.81;100538.69;5005662;28;20030;-46
2022/02/19 08:30:23;;;;;;;1.50;0.70;;;;;;;20.83;45.01;100531.53;5006249;28;20034;-44
2022/02/19 08:32:49;;;;;;;1.38;0.65;;;;;;;20.91;44.64;100534.97;5003235;28;20280;-43
2022/02/19 08:35:16;;;;;;;1.27;0.80;;;;;;;20.97;44.77;100534.13;5004760;28;20065;-43
2022/02/19 08:37:41;;;;;;;1.70;0.52;;;;;;;20.99;44.84;100532.06;5003368;28;20030;-44
2022/02/19 08:40:09;;;;;;;2.10;0.60;;;;;;;21.04;44.96;100540.19;5002370;28;20374;-41
2022/02/19 08:42:35;;;;;;;0.95;0.68;;;;;;;21.05;45.45;100537.34;4997846;28;20053;-41
2022/02/19 08:45:01;;;;;;;1.75;0.75;;;;;;;21.06;45.77;100548.75;5002943;28;20037;-43
2022/02/19 08:47:27;;;;;;;2.22;0.80;;;;;;;21.10;45.69;100549.97;5004449;28;20030;-41
2022/02/19 08:49:53;;;;;;;2.78;1.05;;;;;;;21.14;46.00;100556.47;5003349;28;20039;-43
2022/02/19 08:52:19;;;;;;;3.08;0.90;;;;;;;21.15;46.45;100555.44;5004059;28;20053;-42
2022/02/19 08:54:44;;;;;;;3.40;0.50;;;;;;;21.11;46.23;100555.03;5006313;28;20034;-44
2022/02/19 08:57:09;;;;;;;2.83;0.68;;;;;;;21.11;45.89;100562.19;5004598;28;20030;-42
2022/02/19 08:59:35;;;;;;;1.17;0.50;;;;;;;21.08;46.36;100562.59;5005351;28;20178;-41
2022/02/19 09:02:00;;;;;;;4.32;0.63;;;;;;;21.07;46.31;100561.78;5005497;28;20116;-41
2022/02/19 09:04:26;;;;;;;2.35;0.60;;;;;;;21.06;46.75;100564.66;5004872;28;20103;-39
2022/02/19 09:06:51;;;;;;;1.33;0.52;;;;;;;21.06;46.78;100564.66;5004537;28;20496;-42
2022/02/19 09:09:17;;;;;;;2.90;0.85;;;;;;;21.05;47.19;100569.13;5002935;28;20216;-40
2022/02/19 09:11:43;;;;;;;3.15;0.70;;;;;;;21.06;47.06;100575.25;5001819;28;20049;-39
2022/02/19 09:14:08;;;;;;;2.75;0.40;;;;;;;21.04;47.27;100578.09;5002714;28;20394;-40
2022/02/19 09:16:36;;;;;;;1.95;0.70;;;;;;;21.03;47.08;100571.19;5002813;28;20030;-40
2022/02/19 09:19:03;;;;;;;4.60;0.70;;;;;;;20.99;47.12;100577.91;5002486;28;20437;-40
2022/02/19 09:21:29;;;;;;;1.17;0.47;;;;;;;20.97;46.83;100568.53;4986881;28;20037;-40
2022/02/19 09:23:55;;;;;;;1.23;0.45;;;;;;;20.99;46.95;100574.44;5003699;28;20041;-41
2022/02/19 09:26:21;;;;;;;5.32;0.90;;;;;;;20.96;46.98;100572.22;5005297;28;20393;-42
2022/02/19 09:28:47;;;;;;;2.15;0.75;;;;;;;20.96;46.79;100578.31;5005190;28;20366;-40
2022/02/19 09:31:13;;;;;;;2.58;0.73;;;;;;;20.95;46.51;100583.84;5005826;28;20053;-41
2022/02/19 09:33:38;;;;;;;2.58;0.70;;;;;;;20.94;46.48;100576.91;5009767;28;20075;-40
2022/02/19 09:36:04;;;;;;;3.33;0.85;;;;;;;20.92;46.69;100574.47;5007355;28;20551;-41
2022/02/19 09:38:30;;;;;;;3.58;1.38;;;;;;;20.93;46.71;100575.28;5004920;28;20104;-43
2022/02/19 09:40:57;;;;;;;2.35;1.13;;;;;;;20.90;46.60;100581.81;5008907;28;20030;-39
2022/02/19 09:43:24;;;;;;;2.83;0.80;;;;;;;20.91;47.07;100580.78;5004984;28;20342;-41
2022/02/19 09:45:50;;;;;;;2.95;0.93;;;;;;;20.91;47.16;100582.63;4989885;28;20469;-41
2022/02/19 09:48:17;;;;;;;4.60;0.70;;;;;;;20.91;47.96;100587.91;5007169;28;20065;-41
2022/02/19 09:50:48;;;;;;;2.85;0.70;;;;;;;20.91;48.33;100578.16;5005651;28;20416;-42
2022/02/19 09:53:14;;;;;;;4.60;0.70;;;;;;;20.86;48.30;100589.34;4987650;28;20029;-41
2022/02/19 09:55:40;;;;;;;2.03;0.65;;;;;;;20.84;47.91;100586.09;5001000;28;20044;-43
2022/02/19 09:58:05;;;;;;;3.25;0.77;;;;;;;20.79;47.60;100591.25;5007316;28;20026;-40
2022/02/19 10:00:39;;;;;;;1.25;0.70;;;;;;;20.76;47.45;100591.66;5006119;28;20108;-47
2022/02/19 10:03:25;;;;;;;2.83;1.17;;;;;;;20.72;47.28;100586.97;4986277;28;20026;-45
2022/02/19 10:05:51;;;;;;;;;;;;;;;20.61;47.79;100590.25;5004714;28;20046;-47
2022/02/19 10:08:16;;;;;;;;;;;;;;;20.53;47.79;100596.56;5010127;28;19918;-45
2022/02/19 10:10:50;;;;;;;2.83;0.80;;;;;;;20.54;47.63;100598.22;5009523;28;20392;-44
2022/02/19 10:13:34;;;;;;;1.80;0.80;;;;;;;20.54;47.34;100603.50;5007493;28;20145;-43
2022/02/19 10:16:05;;;;;;;2.58;0.60;;;;;;;20.55;47.59;100597.19;5004654;28;20034;-43
2022/02/19 10:18:32;;;;;;;2.60;0.70;;;;;;;20.54;47.28;100598.22;4987244;28;20044;-46
2022/02/19 10:21:17;;;;;;;1.77;0.70;;;;;;;20.51;47.28;100603.91;5004927;28;20038;-46
2022/02/19 10:23:56;;;;;;;3.50;0.57;;;;;;;20.49;47.57;100600.66;5004921;28;20053;-47
2022/02/19 10:26:30;;;;;;;3.28;0.60;;;;;;;20.47;47.39;100600.03;5002968;28;20292;-45
2022/02/19 10:29:01;;;;;;;6.75;1.60;;;;;;;20.47;47.45;100600.03;5007321;28;20025;-41
2022/02/19 10:31:27;;;;;;;4.60;2.42;;;;;;;20.44;47.55;100598.63;5002822;28;20434;-42
2022/02/19 10:34:05;;;;;;;5.82;1.90;;;;;;;20.40;47.50;100597.41;5007838;28;20069;-44
2022/02/19 10:36:43;;;;;;;2.75;1.48;;;;;;;20.38;47.32;100598.63;5006419;28;20477;-42
2022/02/19 10:39:08;;;;;;;3.80;2.00;;;;;;;20.38;47.22;100599.44;5003717;28;21062;-44
2022/02/19 10:41:39;;;;;;;3.13;1.55;;;;;;;20.34;47.48;100597.38;5005869;28;20026;-41
2022/02/19 10:44:23;;;;;;;1.30;1.00;;;;;;;20.30;47.19;100597.00;5004960;28;20202;-44
2022/02/19 10:46:50;;;;;;;5.03;1.50;;;;;;;20.30;47.24;100597.00;4991038;28;20216;-41
2022/02/19 10:49:15;;;;;;;4.03;1.10;;;;;;;20.30;47.12;100596.19;5006268;28;20045;-45
2022/02/19 10:51:42;;;;;;;5.60;1.08;;;;;;;20.29;47.06;100605.13;5005497;28;20026;-46
2022/02/19 10:54:09;;;;;;;2.40;0.80;;;;;;;20.29;46.86;100602.50;4990132;28;20083;-43
2022/02/19 10:56:36;;;;;;;2.33;1.10;;;;;;;20.28;46.74;100604.31;5007063;28;20033;-44
2022/02/19 10:59:04;;;;;;;5.20;1.10;;;;;;;20.27;47.09;100602.69;4990791;28;20045;-43
2022/02/19 11:01:42;;;;;;;3.42;1.15;;;;;;;20.25;46.95;100609.22;5006516;28;20130;-43
2022/02/19 11:04:10;;;;;;;1.77;0.70;;;;;;;20.26;46.77;100600.25;5007275;28;20034;-41
2022/02/19 11:06:35;;;;;;;3.00;1.10;;;;;;;20.25;47.07;100595.97;4983901;28;20030;-43
2022/02/19 11:09:03;;;;;;;1.70;0.88;;;;;;;20.23;46.85;100595.38;5005186;28;20036;-43
2022/02/19 11:11:28;;;;;;;1.48;0.70;;;;;;;20.21;47.14;100595.56;5007274;28;20048;-41
2022/02/19 11:13:56;;;;;;;2.70;0.90;;;;;;;20.18;46.91;100596.78;5007035;28;20029;-40
2022/02/19 11:16:24;;;;;;;2.97;0.90;;;;;;;20.14;47.16;100592.94;4987167;28;20069;-38
2022/02/19 11:18:50;;;;;;;7.80;1.65;;;;;;;20.12;47.35;100600.25;5006702;28;20037;-46
2022/02/19 11:21:16;;;;;;;4.10;1.25;;;;;;;20.10;47.77;100591.72;5004528;28;20029;-39
2022/02/19 11:23:46;;;;;;;6.53;2.10;;;;;;;20.09;48.21;100594.56;5007480;28;20053;-43
2022/02/19 11:26:11;;;;;;;4.43;1.63;;;;;;;20.07;48.17;100592.13;5007449;28;20113;-41
2022/02/19 11:28:38;;;;;;;4.22;2.30;;;;;;;20.04;48.26;100603.09;5006232;28;20405;-40
2022/02/19 11:31:08;;;;;;;4.90;3.00;;;;;;;20.03;48.27;100592.72;5003760;28;20030;-46